OEDF/DMM METAR and TAF weather

Enter ICAO airport designator
Station Type Date Time Source
OEDF METAR 2019/02/17 15:00 UTC NOAA

OEDF 171500Z 340010KT CAVOK 17/03 Q1018 NOSIG


Station Type Date Time Source
OEDF Decoded METAR 2019/02/17 15:00 UTC NOAA

Dammam-King Fahd International Airport, Saudi Arabia (OEDF) 26-28N 049-47E
Feb 17, 2019 - 10:00 AM EST / 2019.02.17 1500 UTC
Wind: from the NNW (340 degrees) at 12 MPH (10 KT):0
Visibility: greater than 7 mile(s):0
Temperature: 62 F (17 C)
Dew Point: 37 F (3 C)
Relative Humidity: 39%
Pressure (altimeter): 30.06 in. Hg (1018 hPa)
ob: OEDF 171500Z 340010KT CAVOK 17/03 Q1018 NOSIG
cycle: 15

Station Type Date Time Source
OEDF TAF 2019/02/17 12:03 UTC NOAA

TAF TAF OEDF 170900Z 1712/1818 34016KT CAVOK
BECMG 1720/1722 31009KT
BECMG 1808/1810 02013KT


Example: see airport list